Time;durP1;ratioP1;P1;durP2;ratioP2;P2;SDS_P1;SDS_P2;PMS_P1;PMS_P2;Temp;Humidity;BMP_temperature;BMP_pressure;BME280_temperature;BME280_humidity;BME280_pressure;Samples;Min_cycle;Max_cycle;Signal;HPM_P1;HPM_P2
2022/10/04 00:02:13;;;;;;;4.40;3.00;;;;;;;12.50;68.41;93459.28;2051743;70;20630;-73
2022/10/04 00:05:03;;;;;;;4.30;2.97;;;;;;;12.49;68.11;93457.81;2051635;70;20161;-75
2022/10/04 00:07:34;;;;;;;3.80;2.70;;;;;;;12.33;67.81;93457.50;2051454;70;20202;-74
2022/10/04 00:10:18;;;;;;;8.00;2.70;;;;;;;12.42;67.53;93459.50;2051645;70;20146;-73
2022/10/04 00:13:06;;;;;;;6.63;3.28;;;;;;;12.25;69.10;93453.38;2050937;70;20586;-79
2022/10/04 00:15:37;;;;;;;5.80;3.10;;;;;;;12.20;69.93;93455.19;2050967;69;20158;-77
2022/10/04 00:18:18;;;;;;;4.32;2.78;;;;;;;12.17;69.13;93451.50;2053291;70;20154;-75
2022/10/04 00:20:51;;;;;;;5.70;3.28;;;;;;;12.15;69.24;93457.00;2051168;70;20142;-78
2022/10/04 00:23:23;;;;;;;8.48;2.85;;;;;;;12.09;69.52;93455.84;2051740;70;20146;-78
2022/10/04 00:25:51;;;;;;;7.53;3.20;;;;;;;12.09;68.44;93447.38;2050992;70;20141;-78
2022/10/04 00:28:19;;;;;;;6.90;3.08;;;;;;;11.98;69.22;93454.44;2051206;70;20216;-78
2022/10/04 00:31:11;;;;;;;5.80;2.70;;;;;;;11.95;68.58;93456.38;2050877;70;20154;-78
2022/10/04 00:33:40;;;;;;;3.83;2.58;;;;;;;12.00;68.39;93453.81;2051190;70;20130;-75
2022/10/04 00:36:23;;;;;;;5.88;2.33;;;;;;;12.00;68.00;93453.81;2051059;70;20213;-77
2022/10/04 00:39:02;;;;;;;3.40;2.33;;;;;;;11.84;68.57;93450.66;2051206;70;20154;-79
2022/10/04 00:41:49;;;;;;;2.92;2.10;;;;;;;11.83;67.83;93457.66;2051015;70;20174;-77
2022/10/04 00:44:22;;;;;;;5.80;2.65;;;;;;;11.70;69.48;93445.50;2049538;70;20146;-74
2022/10/04 00:46:53;;;;;;;3.80;2.40;;;;;;;11.80;68.05;93456.72;2050375;70;20213;-78
2022/10/04 00:49:23;;;;;;;4.65;3.00;;;;;;;11.27;72.08;93443.88;2051124;70;20166;-76
2022/10/04 00:51:59;;;;;;;5.35;2.90;;;;;;;11.46;70.38;93446.66;2050840;70;20229;-76
2022/10/04 00:54:33;;;;;;;4.85;2.97;;;;;;;11.53;69.31;93442.88;2050997;70;20142;-79
2022/10/04 00:57:06;;;;;;;3.97;2.30;;;;;;;11.48;69.04;93441.13;2050935;70;20252;-78
2022/10/04 00:59:43;;;;;;;5.80;2.83;;;;;;;11.36;70.17;93437.47;2051026;70;20233;-78
2022/10/04 01:02:32;;;;;;;4.97;2.65;;;;;;;11.33;69.89;93436.59;2051074;70;20211;-78
2022/10/04 01:04:59;;;;;;;7.55;3.00;;;;;;;11.46;68.29;93435.38;2050910;70;20712;-77
2022/10/04 01:07:32;;;;;;;6.43;2.60;;;;;;;11.47;68.57;93431.19;2050350;70;20233;-79
2022/10/04 01:10:02;;;;;;;4.47;2.70;;;;;;;11.36;69.07;93426.19;2051106;70;20198;-79
2022/10/04 01:12:42;;;;;;;4.13;2.20;;;;;;;11.28;68.51;93423.56;2050783;70;20223;-78
2022/10/04 01:15:13;;;;;;;3.60;2.00;;;;;;;11.36;67.42;93426.94;2051383;70;20182;-78
2022/10/04 01:17:39;;;;;;;4.72;2.10;;;;;;;11.31;67.27;93424.44;2051016;70;20274;-77
2022/10/04 01:20:32;;;;;;;2.63;2.08;;;;;;;11.34;67.29;93420.41;2050963;70;20564;-77
2022/10/04 01:22:58;;;;;;;3.20;2.15;;;;;;;11.17;67.65;93412.91;2051130;70;20474;-78
2022/10/04 01:25:48;;;;;;;4.30;2.22;;;;;;;11.26;67.23;93406.50;2050812;70;20234;-77
2022/10/04 01:28:15;;;;;;;9.70;2.50;;;;;;;11.24;66.78;93412.00;2051058;70;20155;-78
2022/10/04 01:30:45;;;;;;;5.43;2.00;;;;;;;11.10;67.76;93406.13;2050806;70;20127;-73
2022/10/04 01:33:12;;;;;;;6.43;2.30;;;;;;;11.04;67.73;93410.56;2050899;70;20478;-79
2022/10/04 01:35:37;;;;;;;4.03;1.95;;;;;;;11.01;67.85;93412.53;2051116;70;20229;-77
2022/10/04 01:38:06;;;;;;;2.97;1.90;;;;;;;11.01;66.93;93415.34;2051648;70;20216;-75
2022/10/04 01:40:34;;;;;;;2.88;1.60;;;;;;;10.95;67.31;93414.91;2051654;70;20161;-77
2022/10/04 01:43:09;;;;;;;3.35;2.10;;;;;;;10.95;67.92;93414.91;2048312;70;20150;-79
2022/10/04 01:45:41;;;;;;;2.97;1.60;;;;;;;11.01;67.26;93404.06;2051490;70;20165;-78
2022/10/04 01:48:11;;;;;;;3.58;1.90;;;;;;;11.03;66.73;93403.47;2053915;70;20155;-78
2022/10/04 01:50:55;;;;;;;4.05;1.75;;;;;;;11.02;66.68;93404.81;2051632;70;20584;-77
2022/10/04 01:53:39;;;;;;;3.40;1.85;;;;;;;10.83;67.68;93409.16;2051742;70;20145;-80
2022/10/04 01:56:14;;;;;;;2.13;1.90;;;;;;;10.78;67.53;93406.66;2051752;70;20138;-78
2022/10/04 01:58:46;;;;;;;4.18;2.00;;;;;;;10.75;67.23;93396.56;2051699;70;20150;-78
2022/10/04 02:01:23;;;;;;;4.22;1.80;;;;;;;10.75;67.09;93402.19;2051558;70;20141;-79
2022/10/04 02:04:01;;;;;;;2.67;1.63;;;;;;;10.73;67.03;93400.00;2051752;70;20643;-78
2022/10/04 02:06:29;;;;;;;2.10;1.80;;;;;;;10.62;67.78;93404.13;2051633;70;20213;-80
2022/10/04 02:08:56;;;;;;;2.95;1.50;;;;;;;10.67;67.30;93405.16;2051697;70;20158;-79
2022/10/04 02:11:23;;;;;;;3.53;1.40;;;;;;;10.68;67.27;93398.22;2051732;70;20178;-78
2022/10/04 02:13:53;;;;;;;4.15;1.67;;;;;;;10.71;66.59;93405.47;2051544;70;20699;-79
2022/10/04 02:16:21;;;;;;;2.25;1.60;;;;;;;10.66;67.20;93395.97;2051471;70;20162;-80
2022/10/04 02:18:49;;;;;;;2.13;1.48;;;;;;;10.60;67.22;93400.44;2051696;70;20566;-79
2022/10/04 02:21:16;;;;;;;3.13;1.45;;;;;;;10.60;66.84;93387.09;2048457;70;20586;-75
2022/10/04 02:23:43;;;;;;;1.88;1.50;;;;;;;10.42;68.11;93377.34;2051777;70;20170;-79
2022/10/04 02:26:10;;;;;;;3.45;1.42;;;;;;;10.46;67.41;93383.28;2051546;70;20173;-78
2022/10/04 02:28:37;;;;;;;6.13;1.60;;;;;;;10.57;66.96;93382.66;2051584;70;20188;-79
2022/10/04 02:33:51;;;;;;;1.38;1.23;;;;;;;10.45;66.96;93383.88;2051664;70;20161;-78
2022/10/04 02:36:20;;;;;;;2.50;1.40;;;;;;;10.51;66.84;93375.88;2051727;70;20161;-77
2022/10/04 02:39:15;;;;;;;2.38;1.35;;;;;;;10.14;68.16;93385.19;2051617;70;20562;-79
2022/10/04 02:41:47;;;;;;;1.55;1.42;;;;;;;10.12;67.87;93381.47;2051612;70;20154;-79
2022/10/04 02:44:19;;;;;;;4.45;1.85;;;;;;;10.09;68.52;93374.97;2053586;69;20199;-76
2022/10/04 02:46:54;;;;;;;2.03;1.40;;;;;;;10.28;67.41;93379.16;2051490;70;20546;-79
2022/10/04 02:49:32;;;;;;;1.40;1.23;;;;;;;10.17;68.20;93383.25;2051419;70;20229;-76
2022/10/04 02:52:19;;;;;;;2.10;1.23;;;;;;;10.28;67.35;93370.69;2051620;70;20149;-75
2022/10/04 02:55:02;;;;;;;3.72;1.50;;;;;;;10.21;67.44;93372.28;2051560;70;20571;-78
2022/10/04 02:57:31;;;;;;;2.78;1.40;;;;;;;10.23;67.08;93380.16;2051761;70;20143;-79
2022/10/04 03:00:15;;;;;;;1.58;1.30;;;;;;;10.27;66.71;93381.22;2051451;70;20158;-77
2022/10/04 03:03:01;;;;;;;3.17;1.30;;;;;;;10.03;67.98;93376.59;2051461;70;20150;-78
2022/10/04 03:05:28;;;;;;;2.88;1.25;;;;;;;10.11;67.65;93368.75;2051502;70;20201;-78
2022/10/04 03:07:55;;;;;;;4.75;1.30;;;;;;;10.07;67.44;93369.19;2051527;70;20240;-77
2022/10/04 03:10:21;;;;;;;2.70;1.20;;;;;;;10.07;67.24;93374.81;2051490;70;20154;-78
2022/10/04 03:12:50;;;;;;;1.67;1.10;;;;;;;10.05;67.36;93366.25;2051353;70;20157;-79
2022/10/04 03:15:16;;;;;;;5.90;2.63;;;;;;;10.02;67.44;93378.66;2051753;70;20182;-78
2022/10/04 03:17:43;;;;;;;5.38;2.42;;;;;;;9.98;67.22;93375.53;2053783;70;20134;-79
2022/10/04 03:20:14;;;;;;;3.83;2.25;;;;;;;9.90;68.07;93377.78;2051402;70;20241;-80
2022/10/04 03:22:44;;;;;;;4.85;2.00;;;;;;;9.79;68.42;93386.78;2051594;70;20154;-79
2022/10/04 03:25:16;;;;;;;2.55;1.70;;;;;;;9.78;68.16;93377.59;2051438;70;20146;-76
2022/10/04 03:27:43;;;;;;;3.33;1.90;;;;;;;9.80;67.95;93377.75;2051463;70;20138;-78
2022/10/04 03:30:14;;;;;;;2.00;1.60;;;;;;;9.80;67.69;93386.19;2048126;70;20362;-77
2022/10/04 03:32:40;;;;;;;3.72;1.42;;;;;;;9.80;67.68;93382.63;2051557;70;20178;-79
2022/10/04 03:35:34;;;;;;;2.20;1.30;;;;;;;9.76;67.89;93380.28;2051546;70;20581;-78
2022/10/04 03:38:07;;;;;;;4.20;2.88;;;;;;;9.66;68.99;93371.06;2051265;70;20147;-78
2022/10/04 03:40:36;;;;;;;7.03;3.40;;;;;;;9.67;67.85;93370.50;2051471;70;20135;-78
2022/10/04 03:43:04;;;;;;;1.90;1.60;;;;;;;9.64;68.11;93363.25;2053732;69;20145;-79
2022/10/04 03:45:33;;;;;;;4.43;1.30;;;;;;;9.60;67.82;93367.81;2051480;70;20150;-78
2022/10/04 03:48:06;;;;;;;2.10;1.30;;;;;;;9.56;68.19;93373.88;2051378;70;20146;-77
2022/10/04 03:50:37;;;;;;;5.75;1.25;;;;;;;9.47;68.96;93377.41;2051432;70;20135;-79
2022/10/04 03:53:10;;;;;;;3.08;2.08;;;;;;;9.14;70.48;93383.38;2051585;70;20562;-79
2022/10/04 03:55:42;;;;;;;3.63;2.15;;;;;;;9.38;68.36;93384.47;2051569;70;20146;-78
2022/10/04 03:58:15;;;;;;;4.70;2.22;;;;;;;9.42;68.23;93381.22;2051541;70;20592;-78
2022/10/04 04:01:32;;;;;;;3.85;2.30;;;;;;;9.30;69.25;93383.09;2051128;70;20162;-77
2022/10/04 04:04:09;;;;;;;3.83;2.70;;;;;;;9.29;68.95;93378.81;2037060;70;20661;-76
2022/10/04 04:07:01;;;;;;;3.33;2.00;;;;;;;9.35;68.46;93384.94;2037024;70;20162;-78
2022/10/04 04:09:36;;;;;;;8.88;4.78;;;;;;;9.31;68.71;93384.63;2036981;70;20588;-78
2022/10/04 04:12:09;;;;;;;59.15;33.15;;;;;;;9.31;68.92;93393.03;2037045;70;20516;-76
2022/10/04 04:14:37;;;;;;;17.10;11.18;;;;;;;9.34;68.41;93386.97;2037029;70;20230;-77
2022/10/04 04:17:32;;;;;;;9.95;6.85;;;;;;;9.32;68.93;93384.03;2037148;70;20230;-79
2022/10/04 04:20:02;;;;;;;5.95;3.65;;;;;;;9.33;68.19;93385.50;2033442;70;20144;-79
2022/10/04 04:22:30;;;;;;;2.65;1.90;;;;;;;9.45;67.72;93391.31;2037127;70;20614;-75
2022/10/04 04:25:07;;;;;;;6.03;2.20;;;;;;;9.39;68.08;93385.22;2037130;70;20213;-78
2022/10/04 04:27:36;;;;;;;1.60;1.30;;;;;;;9.35;67.66;93385.66;2037213;70;20183;-76
2022/10/04 04:30:05;;;;;;;1.90;1.15;;;;;;;9.32;68.11;93397.31;2036896;70;20152;-74
2022/10/04 04:32:45;;;;;;;3.40;1.27;;;;;;;9.25;67.38;93387.69;2037144;70;20182;-74
2022/10/04 04:35:37;;;;;;;6.57;1.60;;;;;;;9.14;68.41;93386.16;2037107;70;20236;-79
2022/10/04 04:38:13;;;;;;;5.22;1.50;;;;;;;9.07;68.44;93389.84;2036168;70;20158;-76
2022/10/04 04:40:39;;;;;;;3.05;2.03;;;;;;;9.14;67.76;93377.75;2051386;70;20267;-78
2022/10/04 04:43:05;;;;;;;6.28;3.70;;;;;;;9.12;67.93;93377.59;2051279;70;20155;-79
2022/10/04 04:45:32;;;;;;;4.55;2.90;;;;;;;9.08;68.08;93377.28;2051165;70;20457;-78
2022/10/04 04:48:00;;;;;;;4.40;3.20;;;;;;;9.09;68.24;93380.84;2050700;70;20158;-79
2022/10/04 04:50:30;;;;;;;4.60;2.75;;;;;;;9.06;68.12;93377.13;2051377;70;20150;-79
2022/10/04 04:53:25;;;;;;;4.60;3.00;;;;;;;9.07;67.74;93380.66;2051288;70;20146;-80
2022/10/04 04:56:04;;;;;;;5.95;3.72;;;;;;;9.02;67.92;93388.03;2050963;70;20229;-78
2022/10/04 04:58:35;;;;;;;3.70;2.65;;;;;;;9.00;68.02;93392.78;2051304;70;20146;-79
2022/10/04 05:01:21;;;;;;;6.45;1.48;;;;;;;9.02;67.75;93388.03;2051160;70;20590;-79
2022/10/04 05:04:14;;;;;;;3.67;1.30;;;;;;;9.03;67.47;93389.53;2050912;70;20154;-79
2022/10/04 05:07:08;;;;;;;2.85;1.48;;;;;;;8.93;67.65;93399.22;2051447;70;20181;-78
2022/10/04 05:09:40;;;;;;;2.80;1.50;;;;;;;8.91;68.53;93394.94;2049970;70;20157;-79
2022/10/04 05:12:13;;;;;;;8.38;2.50;;;;;;;8.82;68.56;93398.44;2051382;70;20680;-77
2022/10/04 05:14:46;;;;;;;3.67;2.38;;;;;;;8.83;68.49;93399.91;2051928;70;20345;-79
2022/10/04 05:17:19;;;;;;;8.07;4.55;;;;;;;8.75;68.70;93406.97;2051923;70;20139;-78
2022/10/04 05:19:45;;;;;;;6.32;3.20;;;;;;;8.57;69.50;93409.09;2054135;70;20200;-79
2022/10/04 05:22:13;;;;;;;5.10;3.13;;;;;;;8.54;70.40;93408.19;2051998;70;20147;-79
2022/10/04 05:24:43;;;;;;;5.07;2.58;;;;;;;8.71;68.90;93403.84;2051775;70;20170;-77
2022/10/04 05:27:16;;;;;;;5.85;2.30;;;;;;;8.70;68.70;93402.34;2051779;70;20157;-76
2022/10/04 05:30:01;;;;;;;;;;;;;;;8.69;68.70;93410.03;2051767;70;20161;-77
2022/10/04 05:33:03;;;;;;;7.75;2.97;;;;;;;8.68;68.68;93402.22;2051760;70;20050;-74
2022/10/04 05:35:56;;;;;;;7.35;3.42;;;;;;;8.67;68.47;93411.97;2051488;70;20598;-79
2022/10/04 05:38:31;;;;;;;3.45;2.45;;;;;;;8.67;69.18;93409.16;2049083;70;20663;-79
2022/10/04 05:41:07;;;;;;;4.30;2.95;;;;;;;8.64;69.40;93399.81;2051751;70;20241;-77
2022/10/04 05:43:45;;;;;;;6.72;3.13;;;;;;;8.69;68.78;93400.88;2053850;70;20158;-78
2022/10/04 05:46:30;;;;;;;7.03;3.10;;;;;;;8.65;68.70;93396.41;2051601;70;20652;-77
2022/10/04 05:49:10;;;;;;;5.13;2.78;;;;;;;8.71;68.57;93395.44;2051781;70;20229;-79
2022/10/04 05:51:55;;;;;;;7.38;2.75;;;;;;;8.72;68.47;93394.84;2051774;70;20143;-77
2022/10/04 05:54:25;;;;;;;8.15;4.28;;;;;;;8.61;69.90;93389.75;2051647;69;20142;-78
2022/10/04 05:57:15;;;;;;;14.55;7.82;;;;;;;8.56;69.66;93399.16;2051805;70;20306;-76
2022/10/04 06:00:14;;;;;;;15.18;7.97;;;;;;;8.69;69.40;93396.00;2051702;70;20150;-77
2022/10/04 06:02:49;;;;;;;11.73;7.07;;;;;;;8.66;69.09;93397.19;2051648;70;20365;-77
2022/10/04 06:05:47;;;;;;;10.98;5.60;;;;;;;8.63;69.48;93396.28;2051774;70;20138;-78
2022/10/04 06:08:37;;;;;;;13.82;6.35;;;;;;;8.70;69.61;93397.47;2050196;70;20238;-78
2022/10/04 06:11:16;;;;;;;13.98;7.95;;;;;;;8.74;68.95;93397.81;2051623;70;20181;-78
2022/10/04 06:14:08;;;;;;;10.73;6.53;;;;;;;8.78;68.98;93395.31;2051562;70;20150;-77
2022/10/04 06:16:55;;;;;;;15.05;7.88;;;;;;;8.75;69.50;93395.72;2051578;70;20245;-77
2022/10/04 06:19:56;;;;;;;21.15;13.20;;;;;;;8.82;68.87;93400.50;2051621;70;20170;-76
2022/10/04 06:22:25;;;;;;;19.17;11.68;;;;;;;8.87;69.03;93410.72;2041830;70;20151;-77
2022/10/04 06:25:15;;;;;;;15.38;9.90;;;;;;;8.99;68.97;93410.94;2051403;70;20142;-76
2022/10/04 06:28:33;;;;;;;16.40;9.48;;;;;;;9.03;68.96;93417.63;2051643;70;20154;-76
2022/10/04 06:31:36;;;;;;;7.78;4.38;;;;;;;9.11;69.00;93423.13;2036784;70;20171;-76
2022/10/04 06:34:16;;;;;;;8.00;5.03;;;;;;;9.25;68.33;93426.28;2034467;70;20162;-78
2022/10/04 06:37:14;;;;;;;13.45;6.93;;;;;;;9.31;68.06;93429.56;2037333;70;20150;-79
2022/10/04 06:39:39;;;;;;;9.75;6.32;;;;;;;9.40;67.89;93431.69;2033901;70;20431;-77
2022/10/04 06:42:22;;;;;;;11.35;6.50;;;;;;;9.43;67.94;93436.84;2034505;70;20708;-78
2022/10/04 06:45:03;;;;;;;15.98;9.57;;;;;;;9.52;68.11;93443.09;2037105;70;20244;-78
2022/10/04 06:47:29;;;;;;;21.15;11.85;;;;;;;9.57;68.10;93444.88;2037270;70;20315;-78
2022/10/04 06:50:32;;;;;;;11.65;7.75;;;;;;;9.74;68.10;93452.50;2037260;70;20527;-78
2022/10/04 06:53:15;;;;;;;13.00;6.93;;;;;;;9.93;65.31;93446.91;2037208;70;20156;-77
2022/10/04 06:56:01;;;;;;;16.08;9.98;;;;;;;9.87;66.48;93438.75;2037356;70;20148;-76
2022/10/04 06:58:49;;;;;;;13.95;9.45;;;;;;;9.93;67.24;93430.75;2037307;70;20235;-76
2022/10/04 07:01:47;;;;;;;12.73;8.43;;;;;;;9.93;68.31;93430.03;2034379;70;20238;-77
2022/10/04 07:05:00;;;;;;;12.50;7.40;;;;;;;10.04;68.21;93425.91;2036349;70;20151;-73
2022/10/04 07:07:36;;;;;;;12.85;6.93;;;;;;;10.08;67.95;93424.13;2031744;70;20142;-77
2022/10/04 07:10:31;;;;;;;10.10;6.45;;;;;;;10.18;67.08;93418.50;2051559;69;20153;-75
2022/10/04 07:13:02;;;;;;;11.10;6.63;;;;;;;10.25;67.78;93417.66;2051434;70;20142;-77
2022/10/04 07:15:33;;;;;;;8.75;5.43;;;;;;;10.40;65.61;93420.19;2050734;70;20146;-74
2022/10/04 07:18:07;;;;;;;6.30;4.00;;;;;;;10.37;65.95;93421.34;2051523;70;20162;-74
2022/10/04 07:20:35;;;;;;;7.10;3.97;;;;;;;10.55;64.84;93421.22;2051488;70;20178;-77
2022/10/04 07:23:21;;;;;;;7.60;4.97;;;;;;;10.57;66.63;93429.78;2051520;70;20481;-77
2022/10/04 07:25:54;;;;;;;7.85;4.68;;;;;;;10.75;65.31;93419.09;2051463;70;20578;-76
2022/10/04 07:31:22;;;;;;;4.88;3.15;;;;;;;10.73;65.20;93427.41;2051287;70;20170;-74
2022/10/04 07:34:17;;;;;;;5.88;3.83;;;;;;;10.56;67.33;93428.31;2051411;70;20176;-76
2022/10/04 07:37:05;;;;;;;6.63;3.90;;;;;;;10.72;65.94;93429.50;2051528;70;20714;-74
2022/10/04 07:39:59;;;;;;;6.72;4.30;;;;;;;10.57;67.16;93433.34;2051256;70;20526;-78
2022/10/04 07:42:46;;;;;;;8.18;3.90;;;;;;;10.83;66.75;93439.41;2051537;70;20269;-75
2022/10/04 07:45:25;;;;;;;10.05;4.25;;;;;;;11.10;65.38;93427.94;2051217;70;20567;-75
2022/10/04 07:48:09;;;;;;;6.10;3.88;;;;;;;11.37;64.30;93428.44;2051308;70;20207;-75
2022/10/04 07:50:48;;;;;;;9.80;4.35;;;;;;;11.53;65.08;93428.06;2051600;70;20636;-76
2022/10/04 07:53:19;;;;;;;8.65;4.60;;;;;;;11.73;63.95;93423.06;2051253;69;20225;-76
2022/10/04 07:56:16;;;;;;;4.60;2.80;;;;;;;11.94;63.00;93423.84;2051317;70;20248;-74
2022/10/04 07:58:54;;;;;;;3.35;2.65;;;;;;;12.28;62.32;93430.34;2050180;70;20152;-76
2022/10/04 08:01:32;;;;;;;8.73;2.97;;;;;;;12.12;62.62;93418.69;2051304;70;20226;-77
2022/10/04 08:04:01;;;;;;;4.75;3.17;;;;;;;12.30;61.53;93432.53;2051295;70;20205;-76
2022/10/04 08:06:32;;;;;;;7.43;3.13;;;;;;;12.05;61.04;93427.34;2051437;70;20238;-76
2022/10/04 08:09:15;;;;;;;5.78;2.65;;;;;;;12.58;60.51;93428.00;2051394;70;20147;-76
2022/10/04 08:12:01;;;;;;;8.45;2.63;;;;;;;12.98;59.70;93435.53;2051269;70;20283;-76
2022/10/04 08:14:38;;;;;;;5.32;3.40;;;;;;;13.03;58.53;93430.88;2051140;70;20193;-76
2022/10/04 08:17:19;;;;;;;5.93;2.90;;;;;;;13.36;59.47;93434.41;2051323;70;20246;-75
2022/10/04 08:20:12;;;;;;;8.27;3.35;;;;;;;13.54;58.75;93436.91;2051475;70;20142;-76
2022/10/04 08:22:56;;;;;;;3.35;2.53;;;;;;;13.73;57.73;93420.41;2051236;70;20142;-75
2022/10/04 08:25:37;;;;;;;8.57;4.95;;;;;;;13.54;54.53;93414.25;2050765;70;20158;-78
2022/10/04 08:31:10;;;;;;;6.68;4.18;;;;;;;13.51;56.57;93412.66;2051160;70;20138;-77
2022/10/04 08:33:56;;;;;;;6.97;4.10;;;;;;;13.90;56.39;93407.97;2051276;70;20177;-78
2022/10/04 08:36:37;;;;;;;5.47;3.58;;;;;;;14.26;56.49;93407.94;2051402;70;20150;-78
2022/10/04 08:39:15;;;;;;;4.40;3.10;;;;;;;14.36;55.79;93406.41;2051246;70;20130;-77
2022/10/04 08:42:06;;;;;;;8.65;4.43;;;;;;;13.82;54.13;93415.25;2051395;70;20168;-78
2022/10/04 08:44:38;;;;;;;7.65;4.55;;;;;;;14.41;55.09;93407.41;2053388;70;20202;-74
2022/10/04 08:47:42;;;;;;;3.03;2.50;;;;;;;14.63;55.58;93411.53;2051225;70;20146;-78
2022/10/04 08:50:37;;;;;;;6.30;2.40;;;;;;;14.78;52.14;93418.00;2051160;70;20234;-77
2022/10/04 08:53:41;;;;;;;5.10;2.80;;;;;;;15.03;53.46;93408.75;2051296;70;20146;-76
2022/10/04 08:56:23;;;;;;;7.43;2.10;;;;;;;15.07;53.93;93411.81;2051133;70;20170;-78
2022/10/04 08:59:07;;;;;;;4.40;1.90;;;;;;;15.18;51.50;93403.25;2051221;70;20146;-77
2022/10/04 09:01:56;;;;;;;3.70;1.27;;;;;;;15.07;51.35;93412.56;2051124;70;20204;-75
2022/10/04 09:04:37;;;;;;;2.28;1.40;;;;;;;15.48;52.01;93403.44;2051170;70;20149;-77
2022/10/04 09:07:24;;;;;;;2.70;1.15;;;;;;;15.48;52.53;93407.00;2051182;70;20142;-76
2022/10/04 09:10:32;;;;;;;2.00;1.30;;;;;;;15.70;49.76;93416.00;2051207;70;20257;-77
2022/10/04 09:13:16;;;;;;;1.92;1.27;;;;;;;15.98;49.21;93419.59;2036704;70;20351;-75
2022/10/04 09:16:01;;;;;;;0.82;0.80;;;;;;;16.21;47.81;93421.50;2036814;70;20227;-76
2022/10/04 09:18:29;;;;;;;1.25;0.95;;;;;;;16.28;48.82;93414.03;2036927;70;20243;-76
2022/10/04 09:21:14;;;;;;;2.22;1.00;;;;;;;16.56;47.97;93411.16;2036841;70;20730;-74
2022/10/04 09:23:56;;;;;;;3.50;1.00;;;;;;;15.98;47.53;93404.66;2036892;70;20164;-74
2022/10/04 09:26:48;;;;;;;1.98;1.10;;;;;;;16.02;47.11;93404.88;2036575;70;20284;-75
2022/10/04 09:29:25;;;;;;;1.63;0.82;;;;;;;16.78;47.79;93400.91;2035900;70;20219;-76
2022/10/04 09:32:18;;;;;;;1.40;0.90;;;;;;;16.40;46.52;93406.13;2036848;70;20179;-77
2022/10/04 09:35:15;;;;;;;2.40;0.80;;;;;;;17.41;46.07;93398.22;2036757;70;20152;-73
2022/10/04 09:38:04;;;;;;;1.40;0.90;;;;;;;17.73;45.54;93404.72;2036785;70;20672;-77
2022/10/04 09:41:03;;;;;;;1.73;1.17;;;;;;;17.69;44.87;93392.38;2036784;70;20163;-77
2022/10/04 09:43:41;;;;;;;1.45;1.13;;;;;;;17.85;45.17;93392.38;2036862;70;20175;-77
2022/10/04 09:46:15;;;;;;;1.65;1.05;;;;;;;18.22;45.46;93389.03;2036691;70;20143;-76
2022/10/04 09:48:53;;;;;;;1.65;1.10;;;;;;;17.29;44.29;93394.81;2045086;70;20518;-76
2022/10/04 09:51:18;;;;;;;1.27;1.05;;;;;;;17.88;45.79;93394.69;2051222;70;20217;-78
2022/10/04 09:54:06;;;;;;;2.22;1.42;;;;;;;17.98;44.81;93392.28;2050754;70;20201;-77
2022/10/04 09:56:46;;;;;;;3.88;1.33;;;;;;;17.89;46.18;93386.88;2050193;70;20253;-77
2022/10/04 09:59:35;;;;;;;2.65;1.08;;;;;;;17.49;44.21;93395.00;2050271;70;20154;-78
2022/10/04 10:02:32;;;;;;;4.43;1.30;;;;;;;18.27;43.54;93387.81;2051201;70;20139;-73
2022/10/04 10:05:35;;;;;;;3.90;1.30;;;;;;;18.08;42.75;93385.56;2050412;70;20159;-76
2022/10/04 10:08:12;;;;;;;1.77;0.90;;;;;;;18.16;42.84;93380.22;2051391;70;20233;-76
2022/10/04 10:14:06;;;;;;;2.22;1.10;;;;;;;18.04;42.74;93378.31;2051446;70;20134;-78
2022/10/04 10:16:59;;;;;;;2.83;1.08;;;;;;;18.89;41.83;93379.75;2051264;70;20146;-77
2022/10/04 10:19:51;;;;;;;1.63;1.20;;;;;;;19.25;42.31;93374.78;2050683;69;20209;-75
2022/10/04 10:22:35;;;;;;;3.20;1.27;;;;;;;19.16;42.21;93376.56;2050246;70;20558;-77
2022/10/04 10:25:35;;;;;;;1.90;1.30;;;;;;;19.45;41.64;93375.56;2050311;70;20177;-78
2022/10/04 10:28:27;;;;;;;3.38;1.30;;;;;;;19.44;42.00;93376.22;2050896;70;20142;-76
2022/10/04 10:30:56;;;;;;;2.63;1.57;;;;;;;19.57;41.38;93371.72;2051543;70;20245;-78
2022/10/04 10:33:21;;;;;;;1.33;1.00;;;;;;;19.59;39.66;93380.34;2051215;70;20169;-78
2022/10/04 10:36:25;;;;;;;1.10;0.85;;;;;;;20.14;39.93;93382.41;2051057;70;20598;-74
2022/10/04 10:39:18;;;;;;;1.20;0.90;;;;;;;19.47;38.99;93378.50;2047740;70;20139;-77
2022/10/04 10:42:06;;;;;;;2.43;1.23;;;;;;;19.85;40.12;93384.22;2051406;70;20245;-76
2022/10/04 10:44:46;;;;;;;2.35;1.05;;;;;;;19.53;39.32;93378.00;2050787;70;20650;-78
2022/10/04 10:47:29;;;;;;;1.27;0.80;;;;;;;19.96;38.02;93379.59;2051124;70;20245;-75
2022/10/04 10:50:20;;;;;;;2.03;1.00;;;;;;;20.84;38.85;93376.97;2051089;70;20241;-74
2022/10/04 10:52:58;;;;;;;3.20;1.10;;;;;;;20.66;37.08;93371.38;2050808;70;20134;-76
2022/10/04 10:55:48;;;;;;;2.88;1.33;;;;;;;21.77;37.76;93367.78;2051274;70;20175;-76
2022/10/04 10:58:39;;;;;;;2.72;1.00;;;;;;;22.50;36.08;93366.28;2050583;70;20185;-77
2022/10/04 11:01:13;;;;;;;1.50;1.08;;;;;;;23.23;33.62;93371.03;2051257;70;20503;-75
2022/10/04 11:03:51;;;;;;;2.90;0.90;;;;;;;23.44;34.31;93366.50;2051162;70;20189;-74
2022/10/04 11:06:49;;;;;;;1.70;0.80;;;;;;;24.07;33.27;93370.06;2050982;70;20570;-76
2022/10/04 11:09:28;;;;;;;1.10;1.00;;;;;;;24.74;31.68;93367.78;2036533;70;20136;-76
2022/10/04 11:11:59;;;;;;;2.90;1.10;;;;;;;24.95;30.95;93369.63;2036930;70;20752;-76
2022/10/04 11:15:03;;;;;;;2.78;1.25;;;;;;;26.01;31.52;93370.59;2036685;70;20158;-79
2022/10/04 11:18:00;;;;;;;2.45;1.30;;;;;;;25.20;30.71;93370.81;2036917;70;20535;-77
2022/10/04 11:20:32;;;;;;;2.85;1.33;;;;;;;25.29;30.53;93366.63;2037044;70;20159;-75
2022/10/04 11:23:13;;;;;;;2.10;1.30;;;;;;;27.00;30.08;93364.56;2036880;70;20213;-79
2022/10/04 11:26:01;;;;;;;3.20;1.27;;;;;;;25.67;28.84;93357.13;2037035;70;20234;-78
2022/10/04 11:28:45;;;;;;;1.20;1.10;;;;;;;26.94;29.26;93355.81;2036999;70;20240;-73
2022/10/04 11:31:26;;;;;;;2.67;1.52;;;;;;;26.32;29.11;93352.25;2036613;70;20162;-80
2022/10/04 11:34:22;;;;;;;3.25;1.13;;;;;;;27.71;27.98;93350.00;2036659;70;20155;-78
2022/10/04 11:37:12;;;;;;;10.82;3.33;;;;;;;28.98;27.02;93349.19;2036814;70;20154;-78
2022/10/04 11:39:52;;;;;;;3.70;1.90;;;;;;;28.56;26.75;93341.06;2036983;70;20181;-77
2022/10/04 11:42:36;;;;;;;16.67;5.63;;;;;;;29.66;27.25;93352.16;2036941;70;20212;-78
2022/10/04 11:45:19;;;;;;;4.07;1.80;;;;;;;28.82;25.91;93352.03;2044758;70;20146;-77
2022/10/04 11:48:00;;;;;;;6.88;2.88;;;;;;;28.58;27.54;93343.97;2051187;70;20177;-78
2022/10/04 11:50:45;;;;;;;7.75;1.48;;;;;;;28.54;27.41;93335.25;2051558;69;20522;-80
2022/10/04 11:53:52;;;;;;;14.75;4.47;;;;;;;29.27;26.92;93340.50;2051348;70;20178;-77
2022/10/04 11:56:25;;;;;;;2.22;1.20;;;;;;;29.57;26.22;93331.84;2041535;70;20344;-76
2022/10/04 11:59:09;;;;;;;6.78;2.95;;;;;;;30.31;26.09;93331.72;2051237;70;20157;-77
2022/10/04 12:02:02;;;;;;;3.13;1.52;;;;;;;30.80;24.12;93326.44;2051169;70;20602;-79
2022/10/04 12:04:50;;;;;;;5.18;1.42;;;;;;;29.07;25.59;93315.13;2051540;70;20163;-79
2022/10/04 12:08:00;;;;;;;2.17;1.35;;;;;;;29.60;24.70;93315.91;2051143;70;20146;-77
2022/10/04 12:10:40;;;;;;;2.30;1.50;;;;;;;28.66;26.11;93309.25;2051279;70;20253;-75
2022/10/04 12:13:36;;;;;;;3.55;1.50;;;;;;;28.69;27.31;93307.09;2050909;70;20266;-73
2022/10/04 12:16:42;;;;;;;2.85;1.52;;;;;;;28.73;27.23;93310.72;2050669;70;20150;-77
2022/10/04 12:19:19;;;;;;;9.65;2.55;;;;;;;28.44;27.41;93309.91;2043632;70;20301;-78
2022/10/04 12:22:06;;;;;;;2.92;1.45;;;;;;;28.31;27.64;93302.59;2050460;70;20143;-76
2022/10/04 12:25:02;;;;;;;2.08;1.25;;;;;;;28.36;28.83;93304.06;2050695;70;20224;-77
2022/10/04 12:28:10;;;;;;;3.58;1.40;;;;;;;28.04;28.44;93290.16;2050668;70;20180;-79
2022/10/04 12:31:00;;;;;;;2.67;1.25;;;;;;;28.78;26.78;93291.16;2052796;69;20164;-78
2022/10/04 12:34:01;;;;;;;2.65;1.10;;;;;;;29.34;26.48;93289.78;2050054;70;20154;-77
2022/10/04 12:36:40;;;;;;;1.80;1.60;;;;;;;28.56;26.82;93289.66;2044553;70;20166;-74
2022/10/04 12:39:17;;;;;;;3.78;1.30;;;;;;;29.72;26.64;93270.91;2051998;70;20162;-75
2022/10/04 12:42:07;;;;;;;3.38;1.50;;;;;;;29.57;25.89;93273.81;2050826;70;20237;-78
2022/10/04 12:45:02;;;;;;;5.38;1.40;;;;;;;28.29;26.01;93265.69;2050985;70;20150;-78
2022/10/04 12:47:40;;;;;;;3.45;1.10;;;;;;;29.81;24.80;93261.44;2051223;70;20156;-76
2022/10/04 12:50:40;;;;;;;3.08;1.60;;;;;;;31.63;24.13;93266.22;2051500;70;20566;-76